createdAt,value
2018-06-09T00:00:03.739Z,0.00
2018-06-09T00:01:03.688Z,0.00
2018-06-09T00:02:03.633Z,0.00
2018-06-09T00:03:03.585Z,0.00
2018-06-09T00:04:03.529Z,0.00
2018-06-09T00:05:03.474Z,0.00
2018-06-09T00:06:03.421Z,0.00
2018-06-09T00:07:03.437Z,0.00
2018-06-09T00:08:03.315Z,0.00
2018-06-09T00:09:03.262Z,0.00
2018-06-09T00:10:03.209Z,0.00
2018-06-09T00:11:03.156Z,0.00
2018-06-09T00:12:03.108Z,0.00
2018-06-09T00:13:03.050Z,0.00
2018-06-09T00:14:02.996Z,0.00
2018-06-09T00:15:02.945Z,0.00
2018-06-09T00:16:02.890Z,0.00
2018-06-09T00:17:02.837Z,0.00
2018-06-09T00:18:02.785Z,0.00
2018-06-09T00:19:02.732Z,0.00
2018-06-09T00:20:02.678Z,0.00
2018-06-09T00:21:02.625Z,0.00
2018-06-09T00:22:02.571Z,0.00
2018-06-09T00:23:02.520Z,0.00
2018-06-09T00:24:02.468Z,0.00
2018-06-09T00:25:02.413Z,0.00
2018-06-09T00:26:02.358Z,0.00
2018-06-09T00:27:02.306Z,0.00
2018-06-09T00:28:02.255Z,0.00
2018-06-09T00:29:02.203Z,0.00
2018-06-09T00:30:02.149Z,0.00
2018-06-09T00:31:02.094Z,0.00
2018-06-09T00:32:02.041Z,0.00
2018-06-09T00:33:01.990Z,0.00
2018-06-09T00:34:01.935Z,0.00
2018-06-09T00:35:01.881Z,0.00
2018-06-09T00:36:01.830Z,0.00
2018-06-09T00:37:01.779Z,0.00
2018-06-09T00:38:01.727Z,0.00
2018-06-09T00:39:01.670Z,0.00
2018-06-09T00:40:01.618Z,0.00
2018-06-09T00:41:01.565Z,0.00
2018-06-09T00:42:01.509Z,0.00
2018-06-09T00:43:01.458Z,0.00
2018-06-09T00:44:01.404Z,0.00
2018-06-09T00:45:01.351Z,0.00
2018-06-09T00:46:01.300Z,0.00
2018-06-09T00:47:01.246Z,0.00
2018-06-09T00:48:01.195Z,0.00
2018-06-09T00:49:01.141Z,0.00
2018-06-09T00:50:01.098Z,0.00
2018-06-09T00:51:01.031Z,0.00
2018-06-09T00:52:00.979Z,0.00
2018-06-09T00:53:00.925Z,0.00
2018-06-09T00:54:00.874Z,0.00
2018-06-09T00:55:00.819Z,0.00
2018-06-09T00:56:00.768Z,0.00
2018-06-09T00:57:00.715Z,0.00
2018-06-09T00:58:00.659Z,0.00
2018-06-09T00:59:00.606Z,0.00
2018-06-09T01:00:00.554Z,0.00
2018-06-09T01:01:00.502Z,0.00
2018-06-09T01:02:00.451Z,0.00
2018-06-09T01:03:00.393Z,0.00
2018-06-09T01:04:00.343Z,0.00
2018-06-09T01:05:00.288Z,0.00
2018-06-09T01:06:00.234Z,0.00
2018-06-09T01:07:00.185Z,0.00
2018-06-09T01:08:00.129Z,0.00
2018-06-09T01:09:00.076Z,0.00
2018-06-09T01:10:00.030Z,0.00
2018-06-09T01:10:59.971Z,0.00
2018-06-09T01:11:59.916Z,0.00
2018-06-09T01:12:59.864Z,0.00
2018-06-09T01:13:59.809Z,0.00
2018-06-09T01:14:59.756Z,0.00
2018-06-09T01:15:59.703Z,0.00
2018-06-09T01:16:59.651Z,0.00
2018-06-09T01:17:59.599Z,0.00
2018-06-09T01:18:59.547Z,0.00
2018-06-09T01:19:59.490Z,0.00
2018-06-09T01:20:59.437Z,0.00
2018-06-09T01:21:59.385Z,0.00
2018-06-09T01:22:59.330Z,0.00
2018-06-09T01:23:59.276Z,0.00
2018-06-09T01:24:59.224Z,0.00
2018-06-09T01:25:59.169Z,0.00
2018-06-09T01:26:59.116Z,0.00
2018-06-09T01:27:59.063Z,0.00
2018-06-09T01:28:59.011Z,0.00
2018-06-09T01:29:58.957Z,0.00
2018-06-09T01:30:58.907Z,0.00
2018-06-09T01:31:58.850Z,0.00
2018-06-09T01:32:58.798Z,0.00
2018-06-09T01:33:58.745Z,0.00
2018-06-09T01:34:58.690Z,0.00
2018-06-09T01:35:58.639Z,0.00
2018-06-09T01:36:58.585Z,0.00
2018-06-09T01:37:58.529Z,0.00
2018-06-09T01:38:58.478Z,0.00
2018-06-09T01:39:58.422Z,0.00
2018-06-09T01:40:58.369Z,0.00
2018-06-09T01:41:58.318Z,0.00
2018-06-09T01:42:58.265Z,0.00
2018-06-09T01:43:58.210Z,0.00
2018-06-09T01:44:58.156Z,0.00
2018-06-09T01:45:58.102Z,0.00
2018-06-09T01:46:58.048Z,0.00
2018-06-09T01:47:57.998Z,0.00
2018-06-09T01:48:57.947Z,0.00
2018-06-09T01:49:57.889Z,0.00
2018-06-09T01:50:57.835Z,0.00
2018-06-09T01:51:57.783Z,0.00
2018-06-09T01:52:57.730Z,0.00
2018-06-09T01:53:57.677Z,0.00
2018-06-09T01:54:57.625Z,0.00
2018-06-09T01:55:57.574Z,0.00
2018-06-09T01:56:57.520Z,0.00
2018-06-09T01:57:57.463Z,0.00
2018-06-09T01:58:57.410Z,0.00
2018-06-09T01:59:57.359Z,0.00
2018-06-09T02:00:57.305Z,0.00
2018-06-09T02:01:57.257Z,0.00
2018-06-09T02:02:57.196Z,0.00
2018-06-09T02:03:57.144Z,0.00
2018-06-09T02:04:57.090Z,0.00
2018-06-09T02:05:57.039Z,0.00
2018-06-09T02:06:56.983Z,0.00
2018-06-09T02:07:56.930Z,4.00
2018-06-09T02:08:56.878Z,0.00
2018-06-09T02:09:56.826Z,0.00
2018-06-09T02:10:56.771Z,0.00
2018-06-09T02:11:56.718Z,0.00
2018-06-09T02:12:56.663Z,0.00
2018-06-09T02:13:56.609Z,0.00
2018-06-09T02:14:56.558Z,0.00
2018-06-09T02:15:56.503Z,0.00
2018-06-09T02:16:56.449Z,0.00
2018-06-09T02:17:56.396Z,0.00
2018-06-09T02:18:56.345Z,0.00
2018-06-09T02:19:56.289Z,0.00
2018-06-09T02:20:56.235Z,0.00
2018-06-09T02:21:56.181Z,0.00
2018-06-09T02:22:56.127Z,0.00
2018-06-09T02:23:56.074Z,0.00
2018-06-09T02:24:56.024Z,0.00
2018-06-09T02:25:55.968Z,0.00
2018-06-09T02:26:55.915Z,0.00
2018-06-09T02:27:55.861Z,0.00
2018-06-09T02:28:55.811Z,0.00
2018-06-09T02:29:55.753Z,0.00
2018-06-09T02:30:55.701Z,0.00
2018-06-09T02:31:55.647Z,0.00
2018-06-09T02:32:55.593Z,0.00
2018-06-09T02:33:55.540Z,0.00
2018-06-09T02:34:55.504Z,0.00
2018-06-09T02:35:55.440Z,0.00
2018-06-09T02:36:55.382Z,0.00
2018-06-09T02:37:55.326Z,0.00
2018-06-09T02:38:55.271Z,0.00
2018-06-09T02:39:55.222Z,0.00
2018-06-09T02:40:55.167Z,0.00
2018-06-09T02:41:55.113Z,0.00
2018-06-09T02:42:55.065Z,0.00
2018-06-09T02:43:55.008Z,0.00
2018-06-09T02:44:54.960Z,0.00
2018-06-09T02:45:54.905Z,0.00
2018-06-09T02:46:54.847Z,0.00
2018-06-09T02:47:54.794Z,0.00
2018-06-09T02:48:54.747Z,0.00
2018-06-09T02:49:54.688Z,0.00
2018-06-09T02:50:54.636Z,4.00
2018-06-09T02:51:54.584Z,0.00
2018-06-09T02:52:54.529Z,4.00
2018-06-09T02:53:54.473Z,0.00
2018-06-09T02:54:54.422Z,4.00
2018-06-09T02:55:54.371Z,4.00
2018-06-09T02:56:54.314Z,4.00
2018-06-09T02:57:54.263Z,4.00
2018-06-09T02:58:54.210Z,4.00
2018-06-09T02:59:54.155Z,8.00
2018-06-09T03:00:54.102Z,12.00
2018-06-09T03:01:54.049Z,8.00
2018-06-09T03:02:53.996Z,12.00
2018-06-09T03:03:53.946Z,12.00
2018-06-09T03:04:53.891Z,12.00
2018-06-09T03:05:53.837Z,12.00
2018-06-09T03:06:53.786Z,12.00
2018-06-09T03:07:53.732Z,12.00
2018-06-09T03:08:53.680Z,16.00
2018-06-09T03:09:53.623Z,12.00
2018-06-09T03:10:53.573Z,12.00
2018-06-09T03:11:53.517Z,12.00
2018-06-09T03:12:53.466Z,16.00
2018-06-09T03:13:53.411Z,12.00
2018-06-09T03:14:53.359Z,16.00
2018-06-09T03:15:53.305Z,16.00
2018-06-09T03:16:53.253Z,16.00
2018-06-09T03:17:53.202Z,20.00
2018-06-09T03:18:53.145Z,24.00
2018-06-09T03:19:53.096Z,24.00
2018-06-09T03:20:53.040Z,28.00
2018-06-09T03:21:52.986Z,28.00
2018-06-09T03:22:52.935Z,32.00
2018-06-09T03:23:52.880Z,32.00
2018-06-09T03:24:52.827Z,32.00
2018-06-09T03:25:52.776Z,36.00
2018-06-09T03:26:52.722Z,40.00
2018-06-09T03:27:52.668Z,40.00
2018-06-09T03:28:52.615Z,44.00
2018-06-09T03:29:52.561Z,48.00
2018-06-09T03:30:52.510Z,56.00
2018-06-09T03:31:52.457Z,56.00
2018-06-09T03:32:52.404Z,60.00
2018-06-09T03:33:52.347Z,60.00
2018-06-09T03:34:52.297Z,60.00
2018-06-09T03:35:52.243Z,64.00
2018-06-09T03:36:52.191Z,60.00
2018-06-09T03:37:52.136Z,64.00
2018-06-09T03:38:52.085Z,68.00
2018-06-09T03:39:52.031Z,72.00
2018-06-09T03:40:51.977Z,80.00
2018-06-09T03:41:51.925Z,88.00
2018-06-09T03:42:51.871Z,92.00
2018-06-09T03:43:51.818Z,96.00
2018-06-09T03:44:51.766Z,100.00
2018-06-09T03:45:51.713Z,100.00
2018-06-09T03:46:51.661Z,100.00
2018-06-09T03:47:51.605Z,104.00
2018-06-09T03:48:51.582Z,108.00
2018-06-09T03:49:51.502Z,108.00
2018-06-09T03:50:51.448Z,116.00
2018-06-09T03:51:51.395Z,120.00
2018-06-09T03:52:51.341Z,124.00
2018-06-09T03:53:51.289Z,128.00
2018-06-09T03:54:51.235Z,140.00
2018-06-09T03:55:51.187Z,144.00
2018-06-09T03:56:51.129Z,152.00
2018-06-09T03:57:51.080Z,156.00
2018-06-09T03:58:51.024Z,156.00
2018-06-09T03:59:50.971Z,152.00
2018-06-09T04:00:50.920Z,152.00
2018-06-09T04:01:50.866Z,148.00
2018-06-09T04:02:50.817Z,152.00
2018-06-09T04:03:50.759Z,156.00
2018-06-09T04:04:50.707Z,164.00
2018-06-09T04:05:50.653Z,168.00
2018-06-09T04:06:50.603Z,168.00
2018-06-09T04:07:50.548Z,172.00
2018-06-09T04:08:50.532Z,180.00
2018-06-09T04:09:50.443Z,188.00
2018-06-09T04:10:50.392Z,192.00
2018-06-09T04:11:50.338Z,200.00
2018-06-09T04:12:50.290Z,212.00
2018-06-09T04:13:50.230Z,220.00
2018-06-09T04:14:50.178Z,228.00
2018-06-09T04:15:50.132Z,232.00
2018-06-09T04:16:50.073Z,232.00
2018-06-09T04:17:50.020Z,236.00
2018-06-09T04:18:49.969Z,244.00
2018-06-09T04:19:49.916Z,260.00
2018-06-09T04:20:49.863Z,268.00
2018-06-09T04:21:49.812Z,280.00
2018-06-09T04:22:49.762Z,284.00
2018-06-09T04:23:49.706Z,292.00
2018-06-09T04:24:49.652Z,292.00
2018-06-09T04:25:49.599Z,288.00
2018-06-09T04:26:49.550Z,272.00
2018-06-09T04:27:49.493Z,272.00
2018-06-09T04:28:49.442Z,272.00
2018-06-09T04:29:49.387Z,268.00
2018-06-09T04:30:49.337Z,276.00
2018-06-09T04:31:49.285Z,284.00
2018-06-09T04:32:49.232Z,304.00
2018-06-09T04:33:49.178Z,324.00
2018-06-09T04:34:49.131Z,352.00
2018-06-09T04:35:49.074Z,372.00
2018-06-09T04:36:49.021Z,380.00
2018-06-09T04:37:48.968Z,380.00
2018-06-09T04:38:48.920Z,380.00
2018-06-09T04:39:48.919Z,380.00
2018-06-09T04:40:48.815Z,388.00
2018-06-09T04:41:48.759Z,400.00
2018-06-09T04:42:48.706Z,412.00
2018-06-09T04:43:48.654Z,428.00
2018-06-09T04:44:48.605Z,444.00
2018-06-09T04:45:48.549Z,464.00
2018-06-09T04:46:48.497Z,476.00
2018-06-09T04:47:48.446Z,488.00
2018-06-09T04:48:48.397Z,492.00
2018-06-09T04:49:48.340Z,488.00
2018-06-09T04:50:48.290Z,480.00
2018-06-09T04:51:48.237Z,468.00
2018-06-09T04:52:48.188Z,472.00
2018-06-09T04:53:48.132Z,488.00
2018-06-09T04:54:48.081Z,516.00
2018-06-09T04:55:48.030Z,556.00
2018-06-09T04:56:47.975Z,572.00
2018-06-09T04:57:47.922Z,584.00
2018-06-09T04:58:47.872Z,588.00
2018-06-09T04:59:47.821Z,588.00
2018-06-09T05:00:47.767Z,588.00
2018-06-09T05:01:47.714Z,592.00
2018-06-09T05:02:47.663Z,612.00
2018-06-09T05:03:47.610Z,652.00
2018-06-09T05:04:47.560Z,664.00
2018-06-09T05:05:47.506Z,676.00
2018-06-09T05:06:47.452Z,708.00
2018-06-09T05:07:47.402Z,740.00
2018-06-09T05:08:47.349Z,756.00
2018-06-09T05:09:47.296Z,764.00
2018-06-09T05:10:47.246Z,768.00
2018-06-09T05:11:47.192Z,776.00
2018-06-09T05:12:47.140Z,768.00
2018-06-09T05:13:47.089Z,816.00
2018-06-09T05:14:47.037Z,872.00
2018-06-09T05:15:46.984Z,904.00
2018-06-09T05:16:46.934Z,932.00
2018-06-09T05:17:46.881Z,968.00
2018-06-09T05:18:46.827Z,1020.00
2018-06-09T05:19:46.776Z,1056.00
2018-06-09T05:20:46.724Z,1092.00
2018-06-09T05:21:46.672Z,1084.00
2018-06-09T05:22:46.621Z,1116.00
2018-06-09T05:23:46.569Z,1164.00
2018-06-09T05:24:46.518Z,1240.00
2018-06-09T05:25:46.465Z,1284.00
2018-06-09T05:26:46.413Z,1352.00
2018-06-09T05:27:46.363Z,1400.00
2018-06-09T05:28:46.311Z,1532.00
2018-06-09T05:29:46.256Z,1692.00
2018-06-09T05:30:46.206Z,1844.00
2018-06-09T05:31:46.155Z,1896.00
2018-06-09T05:32:46.103Z,1788.00
2018-06-09T05:33:46.050Z,1732.00
2018-06-09T05:34:45.998Z,1672.00
2018-06-09T05:35:45.945Z,1692.00
2018-06-09T05:36:45.896Z,1704.00
2018-06-09T05:37:45.845Z,1804.00
2018-06-09T05:38:45.791Z,1840.00
2018-06-09T05:39:45.739Z,1740.00
2018-06-09T05:40:45.689Z,1636.00
2018-06-09T05:41:45.637Z,1580.00
2018-06-09T05:42:45.588Z,1580.00
2018-06-09T05:43:45.535Z,1712.00
2018-06-09T05:44:45.486Z,1864.00
2018-06-09T05:45:45.431Z,2008.00
2018-06-09T05:46:45.381Z,2204.00
2018-06-09T05:47:45.328Z,2264.00
2018-06-09T05:48:45.277Z,2172.00
2018-06-09T05:49:45.229Z,2184.00
2018-06-09T05:50:45.174Z,2236.00
2018-06-09T05:51:45.125Z,2164.00
2018-06-09T05:52:45.073Z,2040.00
2018-06-09T05:53:45.022Z,1988.00
2018-06-09T05:54:44.972Z,2016.00
2018-06-09T05:55:44.925Z,1776.00
2018-06-09T05:56:44.868Z,1884.00
2018-06-09T05:57:44.820Z,2136.00
2018-06-09T05:58:44.765Z,2180.00
2018-06-09T05:59:44.715Z,2316.00
2018-06-09T06:00:44.664Z,2380.00
2018-06-09T06:01:44.612Z,2264.00
2018-06-09T06:02:44.561Z,2280.00
2018-06-09T06:03:44.510Z,2620.00
2018-06-09T06:04:44.462Z,2916.00
2018-06-09T06:05:44.408Z,3116.00
2018-06-09T06:06:44.358Z,3240.00
2018-06-09T06:07:44.307Z,2948.00
2018-06-09T06:08:44.255Z,2952.00
2018-06-09T06:09:44.201Z,3344.00
2018-06-09T06:10:44.152Z,3484.00
2018-06-09T06:11:44.102Z,3780.00
2018-06-09T06:12:44.051Z,4088.00
2018-06-09T06:13:44.003Z,4140.00
2018-06-09T06:14:43.949Z,3864.00
2018-06-09T06:15:43.897Z,3388.00
2018-06-09T06:16:43.847Z,3260.00
2018-06-09T06:17:43.802Z,3156.00
2018-06-09T06:18:43.799Z,3108.00
2018-06-09T06:19:43.692Z,2992.00
2018-06-09T06:20:43.642Z,2624.00
2018-06-09T06:21:43.590Z,2176.00
2018-06-09T06:22:43.539Z,1948.00
2018-06-09T06:23:43.490Z,1860.00
2018-06-09T06:24:43.439Z,1608.00
2018-06-09T06:25:43.387Z,1604.00
2018-06-09T06:26:43.337Z,1888.00
2018-06-09T06:27:43.286Z,2076.00
2018-06-09T06:28:43.235Z,2140.00
2018-06-09T06:29:43.181Z,1816.00
2018-06-09T06:30:43.131Z,1532.00
2018-06-09T06:31:43.081Z,1532.00
2018-06-09T06:32:43.029Z,1620.00
2018-06-09T06:33:42.980Z,1888.00
2018-06-09T06:34:42.927Z,2112.00
2018-06-09T06:35:42.877Z,2108.00
2018-06-09T06:36:42.826Z,1992.00
2018-06-09T06:37:42.773Z,1876.00
2018-06-09T06:38:42.723Z,1792.00
2018-06-09T06:39:42.672Z,1888.00
2018-06-09T06:40:42.622Z,2160.00
2018-06-09T06:41:42.568Z,2768.00
2018-06-09T06:42:42.519Z,3748.00
2018-06-09T06:43:42.469Z,4508.00
2018-06-09T06:44:42.419Z,4772.00
2018-06-09T06:45:42.364Z,4824.00
2018-06-09T06:46:42.313Z,5196.00
2018-06-09T06:47:42.265Z,5744.00
2018-06-09T06:48:42.213Z,6120.00
2018-06-09T06:49:42.161Z,5984.00
2018-06-09T06:50:42.112Z,5332.00
2018-06-09T06:51:42.060Z,4728.00
2018-06-09T06:52:42.010Z,4268.00
2018-06-09T06:53:41.959Z,3380.00
2018-06-09T06:54:41.907Z,2640.00
2018-06-09T06:55:41.857Z,2360.00
2018-06-09T06:56:41.864Z,2108.00
2018-06-09T06:57:41.757Z,1768.00
2018-06-09T06:58:41.705Z,1900.00
2018-06-09T06:59:41.656Z,2344.00
2018-06-09T07:00:41.608Z,2348.00
2018-06-09T07:01:41.559Z,2012.00
2018-06-09T07:02:41.503Z,2012.00
2018-06-09T07:03:41.451Z,2076.00
2018-06-09T07:04:41.405Z,1784.00
2018-06-09T07:05:41.350Z,1596.00
2018-06-09T07:06:41.300Z,1628.00
2018-06-09T07:07:41.248Z,1632.00
2018-06-09T07:08:41.199Z,1560.00
2018-06-09T07:09:41.147Z,1516.00
2018-06-09T07:10:41.099Z,1488.00
2018-06-09T07:11:41.047Z,1572.00
2018-06-09T07:12:40.997Z,1912.00
2018-06-09T07:13:40.943Z,2296.00
2018-06-09T07:14:40.894Z,2516.00
2018-06-09T07:15:40.842Z,3156.00
2018-06-09T07:16:40.798Z,3444.00
2018-06-09T07:17:40.741Z,3668.00
2018-06-09T07:18:40.693Z,3820.00
2018-06-09T07:19:40.639Z,3720.00
2018-06-09T07:20:40.590Z,3648.00
2018-06-09T07:21:40.538Z,3092.00
2018-06-09T07:22:40.487Z,2672.00
2018-06-09T07:23:40.435Z,2528.00
2018-06-09T07:24:40.384Z,2516.00
2018-06-09T07:25:40.337Z,2408.00
2018-06-09T07:26:40.285Z,2312.00
2018-06-09T07:27:40.235Z,2224.00
2018-06-09T07:28:40.182Z,2120.00
2018-06-09T07:29:40.134Z,2040.00
2018-06-09T07:30:40.080Z,2032.00
2018-06-09T07:31:40.032Z,1956.00
2018-06-09T07:32:39.979Z,2080.00
2018-06-09T07:33:39.927Z,2228.00
2018-06-09T07:34:39.878Z,2272.00
2018-06-09T07:35:39.830Z,2348.00
2018-06-09T07:36:39.777Z,2356.00
2018-06-09T07:37:39.726Z,2264.00
2018-06-09T07:38:39.677Z,2220.00
2018-06-09T07:39:39.630Z,2216.00
2018-06-09T07:40:39.577Z,2284.00
2018-06-09T07:41:39.524Z,2320.00
2018-06-09T07:42:39.473Z,2460.00
2018-06-09T07:43:39.423Z,2460.00
2018-06-09T07:44:39.374Z,2600.00
2018-06-09T07:45:39.323Z,2840.00
2018-06-09T07:46:39.274Z,2944.00
2018-06-09T07:47:39.222Z,3052.00
2018-06-09T07:48:39.173Z,3160.00
2018-06-09T07:49:39.121Z,3108.00
2018-06-09T07:50:39.069Z,3136.00
2018-06-09T07:51:39.020Z,3268.00
2018-06-09T07:52:38.971Z,3364.00
2018-06-09T07:53:38.920Z,3500.00
2018-06-09T07:54:38.872Z,3460.00
2018-06-09T07:55:38.821Z,3560.00
2018-06-09T07:56:38.770Z,3992.00
2018-06-09T07:57:38.719Z,3964.00
2018-06-09T07:58:38.668Z,3680.00
2018-06-09T07:59:38.647Z,3396.00
2018-06-09T08:00:38.570Z,3124.00
2018-06-09T08:01:38.518Z,2936.00
2018-06-09T08:02:38.470Z,3000.00
2018-06-09T08:03:38.423Z,3232.00
2018-06-09T08:04:38.370Z,3444.00
2018-06-09T08:05:38.319Z,3804.00
2018-06-09T08:06:38.270Z,4508.00
2018-06-09T08:07:38.219Z,5372.00
2018-06-09T08:08:38.170Z,4880.00
2018-06-09T08:09:38.121Z,4168.00
2018-06-09T08:10:38.070Z,4016.00
2018-06-09T08:11:38.024Z,4152.00
2018-06-09T08:12:37.970Z,4304.00
2018-06-09T08:13:37.921Z,4280.00
2018-06-09T08:14:37.872Z,4340.00
2018-06-09T08:15:37.826Z,4548.00
2018-06-09T08:16:37.773Z,4876.00
2018-06-09T08:17:37.722Z,5068.00
2018-06-09T08:18:37.675Z,5144.00
2018-06-09T08:19:37.626Z,5004.00
2018-06-09T08:20:37.579Z,4912.00
2018-06-09T08:21:37.525Z,4848.00
2018-06-09T08:22:37.479Z,4760.00
2018-06-09T08:23:37.427Z,4768.00
2018-06-09T08:24:37.382Z,5036.00
2018-06-09T08:25:37.330Z,5224.00
2018-06-09T08:26:37.279Z,5088.00
2018-06-09T08:27:37.230Z,5476.00
2018-06-09T08:28:37.183Z,5552.00
2018-06-09T08:29:37.136Z,4784.00
2018-06-09T08:30:37.080Z,4360.00
2018-06-09T08:31:37.032Z,4056.00
2018-06-09T08:32:36.985Z,3852.00
2018-06-09T08:33:36.936Z,3856.00
2018-06-09T08:34:36.886Z,3972.00
2018-06-09T08:35:36.838Z,4184.00
2018-06-09T08:36:36.935Z,4804.00
2018-06-09T08:37:36.740Z,4924.00
2018-06-09T08:38:36.688Z,4872.00
2018-06-09T08:39:36.640Z,4756.00
2018-06-09T08:40:36.592Z,4740.00
2018-06-09T08:41:36.543Z,4520.00
2018-06-09T08:42:36.493Z,4256.00
2018-06-09T08:43:36.445Z,4104.00
2018-06-09T08:44:36.400Z,4124.00
2018-06-09T08:45:36.347Z,4176.00
2018-06-09T08:46:36.298Z,4112.00
2018-06-09T08:47:36.248Z,4084.00
2018-06-09T08:48:36.200Z,4188.00
2018-06-09T08:49:36.150Z,4020.00
2018-06-09T08:50:36.109Z,3976.00
2018-06-09T08:51:36.054Z,4264.00
2018-06-09T08:52:36.006Z,4696.00
2018-06-09T08:53:35.956Z,5064.00
2018-06-09T08:54:35.932Z,5140.00
2018-06-09T08:55:35.858Z,4960.00
2018-06-09T08:56:35.811Z,4540.00
2018-06-09T08:57:35.765Z,4424.00
2018-06-09T08:58:35.716Z,4404.00
2018-06-09T08:59:35.665Z,4416.00
2018-06-09T09:00:35.622Z,4588.00
2018-06-09T09:01:35.566Z,4696.00
2018-06-09T09:02:35.523Z,4888.00
2018-06-09T09:03:35.473Z,5292.00
2018-06-09T09:04:35.427Z,4976.00
2018-06-09T09:05:35.372Z,5136.00
2018-06-09T09:06:35.325Z,5244.00
2018-06-09T09:07:35.275Z,5052.00
2018-06-09T09:08:35.226Z,4924.00
2018-06-09T09:09:35.179Z,4868.00
2018-06-09T09:10:35.133Z,4720.00
2018-06-09T09:11:35.083Z,4600.00
2018-06-09T09:12:35.034Z,4616.00
2018-06-09T09:13:34.985Z,4844.00
2018-06-09T09:14:34.937Z,4792.00
2018-06-09T09:15:34.890Z,4608.00
2018-06-09T09:16:34.859Z,4184.00
2018-06-09T09:17:34.793Z,4032.00
2018-06-09T09:18:34.746Z,3832.00
2018-06-09T09:19:34.698Z,3700.00
2018-06-09T09:20:34.652Z,3720.00
2018-06-09T09:21:34.600Z,3464.00
2018-06-09T09:22:34.553Z,3200.00
2018-06-09T09:23:34.507Z,3052.00
2018-06-09T09:24:34.461Z,3028.00
2018-06-09T09:25:34.410Z,3156.00
2018-06-09T09:26:34.362Z,3316.00
2018-06-09T09:27:34.314Z,3372.00
2018-06-09T09:28:34.268Z,3228.00
2018-06-09T09:29:34.217Z,3148.00
2018-06-09T09:30:34.169Z,3204.00
2018-06-09T09:31:34.122Z,3288.00
2018-06-09T09:32:34.073Z,3112.00
2018-06-09T09:33:34.023Z,3104.00
2018-06-09T09:34:33.978Z,3228.00
2018-06-09T09:35:33.927Z,3452.00
2018-06-09T09:36:33.880Z,3672.00
2018-06-09T09:37:33.831Z,4204.00
2018-06-09T09:38:33.784Z,4672.00
2018-06-09T09:39:33.736Z,4920.00
2018-06-09T09:40:33.702Z,5020.00
2018-06-09T09:41:33.642Z,4992.00
2018-06-09T09:42:33.594Z,4984.00
2018-06-09T09:43:33.546Z,4876.00
2018-06-09T09:44:33.497Z,4932.00
2018-06-09T09:45:33.450Z,4840.00
2018-06-09T09:46:33.401Z,4680.00
2018-06-09T09:47:33.353Z,4796.00
2018-06-09T09:48:33.307Z,4868.00
2018-06-09T09:49:33.260Z,4736.00
2018-06-09T09:50:33.213Z,4312.00
2018-06-09T09:51:33.166Z,3972.00
2018-06-09T09:52:33.119Z,3728.00
2018-06-09T09:53:33.067Z,3472.00
2018-06-09T09:54:33.021Z,3364.00
2018-06-09T09:55:32.974Z,3600.00
2018-06-09T09:56:32.928Z,3624.00
2018-06-09T09:57:32.879Z,3652.00
2018-06-09T09:58:32.833Z,3828.00
2018-06-09T09:59:32.785Z,4064.00
2018-06-09T10:00:32.737Z,4248.00
2018-06-09T10:01:32.694Z,4496.00
2018-06-09T10:02:32.644Z,4596.00
2018-06-09T10:03:32.596Z,4688.00
2018-06-09T10:04:32.548Z,4536.00
2018-06-09T10:05:32.501Z,4496.00
2018-06-09T10:06:32.457Z,4204.00
2018-06-09T10:07:32.407Z,3616.00
2018-06-09T10:08:32.362Z,3184.00
2018-06-09T10:09:32.313Z,2928.00
2018-06-09T10:10:32.265Z,2812.00
2018-06-09T10:11:32.219Z,2776.00
2018-06-09T10:12:32.171Z,2784.00
2018-06-09T10:13:32.123Z,2812.00
2018-06-09T10:14:32.110Z,2764.00
2018-06-09T10:15:32.034Z,2608.00
2018-06-09T10:16:31.985Z,2584.00
2018-06-09T10:17:31.936Z,2672.00
2018-06-09T10:18:31.892Z,2888.00
2018-06-09T10:19:31.843Z,3000.00
2018-06-09T10:20:31.800Z,3088.00
2018-06-09T10:21:31.749Z,3184.00
2018-06-09T10:22:31.703Z,3256.00
2018-06-09T10:23:31.656Z,3332.00
2018-06-09T10:24:31.609Z,3384.00
2018-06-09T10:25:31.563Z,3444.00
2018-06-09T10:26:31.515Z,3512.00
2018-06-09T10:27:31.470Z,3596.00
2018-06-09T10:28:31.423Z,3576.00
2018-06-09T10:29:31.379Z,3540.00
2018-06-09T10:30:31.329Z,3612.00
2018-06-09T10:31:31.285Z,3608.00
2018-06-09T10:32:31.240Z,3476.00
2018-06-09T10:33:31.190Z,3324.00
2018-06-09T10:34:31.145Z,3276.00
2018-06-09T10:35:31.101Z,3192.00
2018-06-09T10:36:31.053Z,3204.00
2018-06-09T10:37:31.008Z,3188.00
2018-06-09T10:38:30.960Z,3220.00
2018-06-09T10:39:30.916Z,3604.00
2018-06-09T10:40:30.868Z,3748.00
2018-06-09T10:41:30.822Z,3648.00
2018-06-09T10:42:30.778Z,3424.00
2018-06-09T10:43:30.731Z,3276.00
2018-06-09T10:44:30.691Z,3140.00
2018-06-09T10:45:30.642Z,3076.00
2018-06-09T10:46:30.594Z,2996.00
2018-06-09T10:47:30.548Z,2936.00
2018-06-09T10:48:30.504Z,2932.00
2018-06-09T10:49:30.456Z,2880.00
2018-06-09T10:50:30.425Z,2824.00
2018-06-09T10:51:30.366Z,2812.00
2018-06-09T10:52:30.320Z,2804.00
2018-06-09T10:53:30.273Z,2784.00
2018-06-09T10:54:30.228Z,2752.00
2018-06-09T10:55:30.183Z,2764.00
2018-06-09T10:56:30.139Z,2772.00
2018-06-09T10:57:30.098Z,2788.00
2018-06-09T10:58:30.053Z,2792.00
2018-06-09T10:59:30.007Z,2788.00
2018-06-09T11:00:29.959Z,2780.00
2018-06-09T11:01:30.000Z,2752.00
2018-06-09T11:02:29.864Z,2796.00
2018-06-09T11:03:29.914Z,2840.00
2018-06-09T11:04:29.776Z,2828.00
2018-06-09T11:05:29.728Z,2812.00
2018-06-09T11:06:29.682Z,2780.00
2018-06-09T11:07:29.637Z,2772.00
2018-06-09T11:08:29.592Z,2796.00
2018-06-09T11:09:29.546Z,2812.00
2018-06-09T11:10:29.507Z,2840.00
2018-06-09T11:11:29.458Z,2896.00
2018-06-09T11:12:29.412Z,2980.00
2018-06-09T11:13:29.364Z,3008.00
2018-06-09T11:14:29.318Z,3040.00
2018-06-09T11:15:29.274Z,3104.00
2018-06-09T11:16:29.233Z,3152.00
2018-06-09T11:17:29.186Z,3152.00
2018-06-09T11:18:29.138Z,3128.00
2018-06-09T11:19:29.090Z,3120.00
2018-06-09T11:20:29.046Z,3116.00
2018-06-09T11:21:29.000Z,3128.00
2018-06-09T11:22:28.953Z,3120.00
2018-06-09T11:23:28.909Z,3048.00
2018-06-09T11:24:28.913Z,2856.00
2018-06-09T11:25:28.819Z,2740.00
2018-06-09T11:26:28.772Z,2712.00
2018-06-09T11:27:28.728Z,2696.00
2018-06-09T11:28:28.683Z,2672.00
2018-06-09T11:29:28.637Z,2692.00
2018-06-09T11:30:28.594Z,2852.00
2018-06-09T11:31:28.547Z,2976.00
2018-06-09T11:32:28.503Z,2976.00
2018-06-09T11:33:28.456Z,2948.00
2018-06-09T11:34:28.413Z,2924.00
2018-06-09T11:35:28.367Z,2904.00
2018-06-09T11:36:28.322Z,2932.00
2018-06-09T11:37:28.276Z,2932.00
2018-06-09T11:38:28.230Z,3192.00
2018-06-09T11:39:28.185Z,3468.00
2018-06-09T11:40:28.141Z,3572.00
2018-06-09T11:41:28.096Z,3540.00
2018-06-09T11:42:28.049Z,3392.00
2018-06-09T11:43:28.006Z,3172.00
2018-06-09T11:44:27.960Z,3092.00
2018-06-09T11:45:27.915Z,3172.00
2018-06-09T11:46:27.870Z,3220.00
2018-06-09T11:47:27.826Z,3112.00
2018-06-09T11:48:27.781Z,3044.00
2018-06-09T11:49:27.736Z,2988.00
2018-06-09T11:50:27.691Z,2912.00
2018-06-09T11:51:27.651Z,2852.00
2018-06-09T11:52:27.605Z,2852.00
2018-06-09T11:53:27.557Z,2912.00
2018-06-09T11:54:27.511Z,2928.00
2018-06-09T11:55:27.466Z,2920.00
2018-06-09T11:56:27.421Z,2900.00
2018-06-09T11:57:27.376Z,2932.00
2018-06-09T11:58:27.336Z,2884.00
2018-06-09T11:59:27.287Z,2836.00
2018-06-09T12:00:27.245Z,2768.00
2018-06-09T12:01:27.196Z,2748.00
2018-06-09T12:02:27.152Z,2740.00
2018-06-09T12:03:27.108Z,2672.00
2018-06-09T12:04:27.063Z,2648.00
2018-06-09T12:05:27.023Z,2628.00
2018-06-09T12:06:26.975Z,2628.00
2018-06-09T12:07:26.929Z,2672.00
2018-06-09T12:08:26.886Z,2772.00
2018-06-09T12:09:26.841Z,2872.00
2018-06-09T12:10:26.796Z,2908.00
2018-06-09T12:11:26.752Z,2856.00
2018-06-09T12:12:26.710Z,2788.00
2018-06-09T12:13:26.669Z,2676.00
2018-06-09T12:14:26.628Z,2608.00
2018-06-09T12:15:26.576Z,2584.00
2018-06-09T12:16:26.532Z,2588.00
2018-06-09T12:17:26.488Z,2584.00
2018-06-09T12:18:26.442Z,2616.00
2018-06-09T12:19:26.399Z,2640.00
2018-06-09T12:20:26.352Z,2668.00
2018-06-09T12:21:26.310Z,2716.00
2018-06-09T12:22:26.265Z,2740.00
2018-06-09T12:23:26.222Z,2772.00
2018-06-09T12:24:26.177Z,2808.00
2018-06-09T12:25:26.134Z,2856.00
2018-06-09T12:26:26.088Z,2896.00